createdAt,value
2022-11-29T00:01:46.535Z,72.21
2022-11-29T00:04:12.864Z,71.56
2022-11-29T00:06:39.169Z,71.36
2022-11-29T00:09:05.481Z,71.59
2022-11-29T00:11:31.767Z,71.71
2022-11-29T00:13:58.069Z,71.54
2022-11-29T00:16:24.412Z,70.25
2022-11-29T00:18:50.716Z,70.67
2022-11-29T00:21:17.019Z,70.03
2022-11-29T00:23:43.336Z,70.03
2022-11-29T00:26:09.629Z,71.25
2022-11-29T00:28:35.929Z,71.33
2022-11-29T00:31:03.094Z,71.26
2022-11-29T00:33:29.401Z,71.11
2022-11-29T00:35:55.691Z,70.60
2022-11-29T00:38:21.994Z,70.57
2022-11-29T00:40:48.284Z,70.58
2022-11-29T00:43:14.594Z,70.66
2022-11-29T00:45:40.945Z,70.17
2022-11-29T00:48:07.256Z,71.44
2022-11-29T00:50:33.556Z,71.29
2022-11-29T00:52:59.867Z,70.98
2022-11-29T00:55:26.163Z,70.41
2022-11-29T00:57:52.462Z,71.18
2022-11-29T01:00:18.785Z,71.32
2022-11-29T01:02:45.086Z,71.20
2022-11-29T01:05:11.403Z,70.92
2022-11-29T01:07:37.759Z,72.39
2022-11-29T01:10:04.089Z,72.20
2022-11-29T01:12:30.391Z,70.85
2022-11-29T01:14:56.720Z,71.36
2022-11-29T01:17:23.035Z,71.82
2022-11-29T01:19:51.022Z,71.50
2022-11-29T01:22:17.525Z,71.60
2022-11-29T01:24:44.140Z,72.35
2022-11-29T01:27:10.655Z,71.61
2022-11-29T01:29:36.971Z,70.62
2022-11-29T01:32:03.261Z,71.48
2022-11-29T01:34:29.565Z,71.57
2022-11-29T01:36:55.918Z,70.27
2022-11-29T01:39:22.207Z,69.77
2022-11-29T01:41:48.487Z,69.64
2022-11-29T01:44:14.794Z,70.03
2022-11-29T01:46:41.090Z,70.15
2022-11-29T01:49:07.374Z,69.83
2022-11-29T01:51:33.678Z,70.88
2022-11-29T01:53:59.951Z,72.07
2022-11-29T01:56:26.225Z,70.97
2022-11-29T01:58:52.530Z,71.21
2022-11-29T02:01:18.842Z,71.02
2022-11-29T02:03:45.157Z,70.46
2022-11-29T02:06:11.449Z,71.68
2022-11-29T02:08:37.728Z,70.67
2022-11-29T02:11:04.015Z,70.13
2022-11-29T02:13:30.350Z,69.98
2022-11-29T02:15:56.668Z,70.65
2022-11-29T02:18:22.976Z,70.89
2022-11-29T02:20:49.285Z,70.44
2022-11-29T02:23:15.567Z,72.03
2022-11-29T02:25:41.855Z,71.40
2022-11-29T02:28:08.152Z,71.48
2022-11-29T02:30:34.486Z,71.38
2022-11-29T02:33:00.798Z,70.92
2022-11-29T02:35:27.095Z,71.03
2022-11-29T02:37:53.377Z,71.15
2022-11-29T02:40:19.669Z,71.60
2022-11-29T02:42:48.709Z,71.58
2022-11-29T02:45:18.825Z,70.79
2022-11-29T02:47:45.105Z,69.95
2022-11-29T02:50:11.411Z,71.26
2022-11-29T02:52:37.701Z,70.98
2022-11-29T02:55:03.990Z,70.88
2022-11-29T02:57:30.272Z,71.24
2022-11-29T02:59:56.564Z,70.37
2022-11-29T03:02:22.902Z,69.88
2022-11-29T03:04:49.262Z,69.98
2022-11-29T03:07:15.573Z,70.12
2022-11-29T03:09:41.881Z,70.57
2022-11-29T03:12:08.184Z,69.98
2022-11-29T03:14:34.475Z,70.69
2022-11-29T03:17:00.763Z,70.01
2022-11-29T03:19:27.075Z,70.21
2022-11-29T03:21:53.362Z,70.27
2022-11-29T03:24:19.641Z,70.67
2022-11-29T03:26:45.954Z,70.11
2022-11-29T03:29:12.241Z,70.40
2022-11-29T03:31:38.532Z,70.59
2022-11-29T03:34:04.833Z,71.29
2022-11-29T03:36:31.117Z,71.71
2022-11-29T03:38:57.408Z,71.73
2022-11-29T03:41:23.721Z,72.42
2022-11-29T03:43:50.012Z,71.45
2022-11-29T03:46:16.406Z,72.32
2022-11-29T03:48:42.792Z,71.37
2022-11-29T03:51:09.086Z,70.77
2022-11-29T03:53:35.387Z,71.68
2022-11-29T03:56:01.797Z,71.86
2022-11-29T03:58:28.089Z,71.31
2022-11-29T04:00:54.376Z,71.65
2022-11-29T04:03:20.680Z,72.12
2022-11-29T04:05:46.977Z,71.62
2022-11-29T04:08:13.263Z,72.29
2022-11-29T04:10:39.575Z,72.49
2022-11-29T04:13:06.115Z,72.04
2022-11-29T04:15:32.405Z,72.35
2022-11-29T04:17:58.704Z,71.70
2022-11-29T04:20:24.996Z,71.75
2022-11-29T04:22:51.289Z,72.28
2022-11-29T04:25:17.586Z,72.74
2022-11-29T04:27:43.872Z,71.83
2022-11-29T04:30:10.166Z,71.74
2022-11-29T04:32:36.473Z,70.77
2022-11-29T04:35:02.767Z,71.37
2022-11-29T04:37:29.054Z,71.04
2022-11-29T04:39:55.363Z,70.53
2022-11-29T04:42:21.656Z,71.45
2022-11-29T04:44:47.946Z,71.42
2022-11-29T04:47:14.256Z,70.94
2022-11-29T04:49:40.550Z,70.69
2022-11-29T04:52:06.844Z,71.15
2022-11-29T04:54:33.195Z,70.65
2022-11-29T04:56:59.482Z,70.89
2022-11-29T04:59:25.787Z,71.05
2022-11-29T05:01:52.163Z,71.73
2022-11-29T05:04:18.492Z,72.10
2022-11-29T05:06:44.785Z,71.57
2022-11-29T05:09:11.099Z,72.20
2022-11-29T05:11:37.405Z,72.42
2022-11-29T05:14:03.712Z,72.40
2022-11-29T05:16:30.024Z,72.38
2022-11-29T05:18:56.321Z,72.31
2022-11-29T05:21:22.616Z,72.81
2022-11-29T05:23:48.928Z,72.11
2022-11-29T05:26:15.357Z,72.33
2022-11-29T05:28:41.671Z,71.11
2022-11-29T05:31:08.018Z,72.01
2022-11-29T05:33:34.333Z,71.76
2022-11-29T05:36:00.640Z,72.06
2022-11-29T05:38:26.953Z,71.89
2022-11-29T05:40:53.244Z,71.36
2022-11-29T05:43:19.546Z,72.56
2022-11-29T05:45:45.869Z,73.00
2022-11-29T05:48:12.169Z,72.98
2022-11-29T05:50:38.453Z,73.34
2022-11-29T05:53:04.769Z,72.80
2022-11-29T05:55:31.069Z,71.85
2022-11-29T05:57:57.384Z,72.85
2022-11-29T06:00:23.748Z,73.88
2022-11-29T06:02:50.105Z,74.39
2022-11-29T06:05:16.413Z,74.15
2022-11-29T06:07:42.757Z,73.98
2022-11-29T06:10:09.131Z,73.79
2022-11-29T06:12:35.425Z,74.07
2022-11-29T06:15:01.741Z,74.33
2022-11-29T06:17:28.045Z,74.00
2022-11-29T06:19:54.335Z,74.00
2022-11-29T06:22:20.641Z,73.79
2022-11-29T06:24:47.238Z,74.66
2022-11-29T06:27:13.692Z,75.04
2022-11-29T06:29:40.004Z,75.04
2022-11-29T06:32:06.332Z,74.91
2022-11-29T06:34:32.636Z,74.73
2022-11-29T06:36:58.957Z,74.29
2022-11-29T06:39:25.256Z,74.07
2022-11-29T06:41:51.549Z,75.29
2022-11-29T06:44:18.047Z,75.18
2022-11-29T06:46:44.561Z,75.82
2022-11-29T06:49:11.159Z,75.59
2022-11-29T06:51:37.537Z,74.81
2022-11-29T06:54:03.845Z,75.12
2022-11-29T06:56:30.147Z,75.48
2022-11-29T06:58:56.471Z,75.10
2022-11-29T07:01:22.838Z,75.60
2022-11-29T07:03:49.200Z,75.98
2022-11-29T07:06:15.555Z,75.90
2022-11-29T07:08:41.860Z,75.26
2022-11-29T07:11:08.161Z,76.05
2022-11-29T07:13:34.469Z,76.33
2022-11-29T07:16:00.820Z,77.00
2022-11-29T07:18:27.477Z,76.34
2022-11-29T07:20:53.823Z,76.45
2022-11-29T07:23:20.283Z,76.19
2022-11-29T07:25:46.581Z,76.52
2022-11-29T07:28:12.910Z,76.50
2022-11-29T07:30:39.204Z,75.38
2022-11-29T07:33:05.809Z,76.04
2022-11-29T07:35:32.221Z,76.04
2022-11-29T07:37:58.515Z,75.77
2022-11-29T07:40:24.819Z,75.79
2022-11-29T07:42:51.267Z,75.71
2022-11-29T07:45:17.561Z,75.50
2022-11-29T07:47:43.860Z,75.21
2022-11-29T07:50:10.182Z,75.81
2022-11-29T07:52:36.875Z,76.54
2022-11-29T07:55:03.258Z,76.01
2022-11-29T07:57:29.558Z,76.45
2022-11-29T07:59:55.876Z,75.61
2022-11-29T08:02:22.201Z,75.46
2022-11-29T08:04:48.643Z,76.14
2022-11-29T08:07:15.160Z,76.98
2022-11-29T08:09:41.874Z,76.34
2022-11-29T08:12:08.307Z,76.37
2022-11-29T08:14:34.635Z,76.78
2022-11-29T08:17:00.921Z,75.11
2022-11-29T08:19:27.236Z,74.73
2022-11-29T08:21:53.535Z,75.71
2022-11-29T08:24:19.837Z,76.14
2022-11-29T08:26:46.163Z,77.06
2022-11-29T08:29:12.459Z,76.93
2022-11-29T08:31:38.827Z,76.63
2022-11-29T08:34:05.174Z,76.77
2022-11-29T08:36:31.478Z,76.59
2022-11-29T08:39:05.948Z,77.73
2022-11-29T08:41:35.144Z,77.85
2022-11-29T08:44:01.467Z,77.40
2022-11-29T08:46:27.773Z,76.86
2022-11-29T08:48:54.083Z,77.38
2022-11-29T08:51:20.378Z,76.74
2022-11-29T08:53:46.679Z,76.81
2022-11-29T08:56:53.331Z,76.47
2022-11-29T08:58:59.261Z,76.67
2022-11-29T09:01:25.602Z,76.96
2022-11-29T09:03:51.937Z,76.17
2022-11-29T09:06:18.241Z,75.97
2022-11-29T09:08:44.562Z,77.01
2022-11-29T09:11:10.867Z,76.21
2022-11-29T09:13:37.177Z,76.52
2022-11-29T09:16:03.580Z,76.20
2022-11-29T09:18:29.941Z,76.44
2022-11-29T09:20:56.235Z,76.86
2022-11-29T09:23:22.567Z,76.39
2022-11-29T09:25:52.093Z,76.03
2022-11-29T09:28:18.481Z,75.84
2022-11-29T09:30:44.879Z,75.89
2022-11-29T09:33:11.270Z,76.33
2022-11-29T09:35:37.578Z,75.81
2022-11-29T09:38:03.940Z,76.29
2022-11-29T09:40:30.267Z,76.87
2022-11-29T09:42:57.823Z,76.21
2022-11-29T09:45:24.164Z,78.25
2022-11-29T09:47:50.480Z,77.89
2022-11-29T09:50:16.776Z,77.75
2022-11-29T09:52:43.116Z,78.33
2022-11-29T09:55:09.430Z,77.85
2022-11-29T09:57:35.742Z,77.36
2022-11-29T10:00:02.070Z,77.11
2022-11-29T10:02:28.432Z,77.47
2022-11-29T10:04:54.727Z,76.11
2022-11-29T10:07:21.099Z,76.38
2022-11-29T10:09:47.437Z,76.55
2022-11-29T10:12:13.767Z,77.78
2022-11-29T10:14:40.088Z,76.89
2022-11-29T10:17:06.387Z,76.83
2022-11-29T10:19:32.690Z,76.80
2022-11-29T10:21:59.045Z,77.65
2022-11-29T10:24:25.355Z,77.06
2022-11-29T10:26:51.646Z,77.27
2022-11-29T10:29:17.973Z,78.58
2022-11-29T10:31:44.276Z,78.53
2022-11-29T10:34:10.584Z,79.05
2022-11-29T10:36:36.909Z,79.39
2022-11-29T10:39:03.202Z,79.12
2022-11-29T10:41:29.505Z,79.83
2022-11-29T10:43:55.816Z,79.62
2022-11-29T10:46:22.180Z,79.96
2022-11-29T10:48:48.486Z,80.05
2022-11-29T10:51:14.820Z,79.49
2022-11-29T10:53:41.120Z,79.46
2022-11-29T10:56:07.420Z,79.08
2022-11-29T10:58:33.744Z,77.75
2022-11-29T11:01:00.108Z,76.96
2022-11-29T11:03:26.487Z,78.00
2022-11-29T11:05:52.854Z,77.38
2022-11-29T11:08:19.229Z,77.14
2022-11-29T11:10:51.024Z,77.37
2022-11-29T11:13:19.395Z,76.33
2022-11-29T11:15:45.695Z,77.41
2022-11-29T11:18:11.986Z,76.78
2022-11-29T11:20:38.290Z,77.52
2022-11-29T11:23:04.573Z,78.11
2022-11-29T11:25:30.873Z,76.75
2022-11-29T11:27:57.232Z,77.83
2022-11-29T11:30:23.527Z,77.79
2022-11-29T11:32:49.814Z,77.35
2022-11-29T11:35:18.474Z,78.66
2022-11-29T11:37:44.998Z,78.46
2022-11-29T11:40:11.387Z,79.01
2022-11-29T11:42:37.819Z,79.42
2022-11-29T11:45:04.374Z,78.81
2022-11-29T11:47:30.852Z,78.26
2022-11-29T11:49:57.183Z,78.12
2022-11-29T11:52:23.490Z,77.63
2022-11-29T11:54:49.784Z,77.55
2022-11-29T11:57:16.099Z,77.69
2022-11-29T11:59:42.392Z,77.81
2022-11-29T12:02:08.709Z,76.83
2022-11-29T12:04:35.020Z,76.61
2022-11-29T12:07:01.301Z,76.59
2022-11-29T12:09:27.595Z,77.16
2022-11-29T12:11:53.905Z,77.25
2022-11-29T12:14:20.196Z,76.73
2022-11-29T12:16:46.486Z,76.91
2022-11-29T12:19:12.794Z,77.19
2022-11-29T12:21:39.092Z,76.71
2022-11-29T12:24:05.400Z,76.57
2022-11-29T12:29:18.028Z,75.56
2022-11-29T12:31:44.395Z,75.91
2022-11-29T12:34:10.688Z,74.95
2022-11-29T12:36:36.981Z,74.57
2022-11-29T12:39:03.297Z,76.13
2022-11-29T12:41:29.586Z,76.05
2022-11-29T12:43:55.879Z,76.43
2022-11-29T12:46:22.254Z,76.90
2022-11-29T12:48:48.597Z,76.45
2022-11-29T12:51:14.918Z,75.95
2022-11-29T12:53:41.231Z,76.08
2022-11-29T12:56:07.535Z,76.14
2022-11-29T12:58:33.827Z,75.68
2022-11-29T13:01:00.153Z,76.02
2022-11-29T13:03:26.447Z,75.77
2022-11-29T13:05:52.862Z,74.45
2022-11-29T13:08:19.172Z,74.45
2022-11-29T13:10:45.736Z,73.90
2022-11-29T13:13:12.042Z,74.29
2022-11-29T13:15:38.418Z,74.67
2022-11-29T13:18:04.732Z,74.99
2022-11-29T13:20:31.027Z,74.90
2022-11-29T13:22:57.362Z,74.58
2022-11-29T13:25:23.659Z,74.35
2022-11-29T13:27:49.971Z,74.95
2022-11-29T13:30:16.299Z,75.36
2022-11-29T13:32:42.588Z,74.09
2022-11-29T13:35:08.881Z,74.14
2022-11-29T13:37:35.245Z,73.74
2022-11-29T13:40:01.556Z,73.12
2022-11-29T13:42:27.858Z,73.12
2022-11-29T13:44:54.181Z,72.87
2022-11-29T13:47:20.487Z,72.76
2022-11-29T13:49:46.789Z,72.96
2022-11-29T13:52:13.105Z,72.93
2022-11-29T13:54:39.397Z,72.88
2022-11-29T13:57:05.682Z,73.27
2022-11-29T13:59:31.998Z,73.03
2022-11-29T14:01:58.355Z,73.19
2022-11-29T14:04:24.753Z,72.50
2022-11-29T14:06:51.059Z,72.83
2022-11-29T14:09:19.385Z,72.96
2022-11-29T14:11:46.315Z,72.53
2022-11-29T14:14:12.650Z,72.18
2022-11-29T14:16:38.962Z,71.34
2022-11-29T14:19:05.281Z,70.62
2022-11-29T14:21:31.597Z,70.87
2022-11-29T14:23:57.892Z,70.83
2022-11-29T14:26:28.271Z,70.71
2022-11-29T14:28:55.299Z,70.36
2022-11-29T14:31:21.641Z,69.73
2022-11-29T14:33:47.966Z,68.71
2022-11-29T14:36:14.298Z,68.16
2022-11-29T14:38:40.610Z,68.46
2022-11-29T14:41:06.905Z,67.82
2022-11-29T14:43:33.264Z,68.46
2022-11-29T14:45:59.562Z,68.53
2022-11-29T14:48:25.863Z,68.67
2022-11-29T14:50:52.176Z,67.98
2022-11-29T14:53:18.465Z,68.29
2022-11-29T14:55:44.776Z,68.75
2022-11-29T14:58:11.092Z,68.66
2022-11-29T15:00:37.379Z,68.70
2022-11-29T15:03:03.670Z,69.24
2022-11-29T15:05:29.980Z,68.79
2022-11-29T15:07:56.361Z,69.52
2022-11-29T15:10:22.674Z,69.02
2022-11-29T15:12:48.999Z,69.43
2022-11-29T15:15:15.396Z,69.86
2022-11-29T15:17:41.721Z,69.98
2022-11-29T15:20:08.043Z,69.57
2022-11-29T15:22:34.339Z,69.53
2022-11-29T15:25:00.636Z,69.72
2022-11-29T15:27:26.964Z,69.47
2022-11-29T15:29:53.260Z,70.28
2022-11-29T15:32:19.624Z,70.04
2022-11-29T15:34:46.231Z,70.36
2022-11-29T15:37:12.724Z,70.56
2022-11-29T15:39:39.023Z,70.41
2022-11-29T15:42:05.355Z,70.39
2022-11-29T15:44:31.643Z,70.39
2022-11-29T15:46:57.935Z,70.93
2022-11-29T15:49:24.276Z,71.28
2022-11-29T15:51:50.589Z,70.64
2022-11-29T15:54:16.896Z,71.29
2022-11-29T15:56:43.212Z,71.03
2022-11-29T15:59:09.512Z,70.59
2022-11-29T16:01:35.891Z,71.07
2022-11-29T16:04:02.284Z,71.29
2022-11-29T16:06:28.587Z,71.12
2022-11-29T16:08:54.892Z,71.84
2022-11-29T16:11:21.208Z,70.93
2022-11-29T16:13:47.501Z,71.67
2022-11-29T16:16:13.880Z,71.03
2022-11-29T16:18:40.257Z,70.75
2022-11-29T16:21:06.558Z,71.13
2022-11-29T16:23:32.846Z,71.35
2022-11-29T16:25:59.159Z,71.30
2022-11-29T16:28:25.448Z,71.49
2022-11-29T16:30:51.744Z,70.88
2022-11-29T16:33:18.056Z,71.74
2022-11-29T16:35:44.352Z,70.37
2022-11-29T16:38:10.698Z,70.73
2022-11-29T16:40:37.002Z,70.67
2022-11-29T16:43:03.298Z,70.57
2022-11-29T16:45:29.679Z,70.79
2022-11-29T16:47:56.053Z,70.37
2022-11-29T16:50:22.352Z,70.23
2022-11-29T16:52:52.016Z,69.68
2022-11-29T16:55:21.307Z,69.71
2022-11-29T16:57:47.609Z,70.22
2022-11-29T17:00:13.899Z,70.24
2022-11-29T17:02:40.253Z,70.16
2022-11-29T17:05:06.554Z,70.04
2022-11-29T17:07:32.878Z,71.00
2022-11-29T17:09:59.229Z,70.91
2022-11-29T17:12:25.510Z,70.96
2022-11-29T17:14:51.785Z,71.38
2022-11-29T17:17:18.072Z,70.88
2022-11-29T17:19:44.362Z,71.51
2022-11-29T17:22:10.639Z,70.79
2022-11-29T17:24:36.943Z,70.62
2022-11-29T17:27:03.221Z,70.41
2022-11-29T17:29:29.502Z,70.68
2022-11-29T17:31:55.858Z,70.56
2022-11-29T17:34:22.192Z,71.14
2022-11-29T17:36:48.492Z,71.36
2022-11-29T17:39:14.794Z,71.06
2022-11-29T17:41:41.086Z,70.48
2022-11-29T17:44:07.381Z,70.89
2022-11-29T17:46:34.466Z,70.41
2022-11-29T17:49:00.769Z,71.25
2022-11-29T17:51:51.355Z,71.90
2022-11-29T17:54:13.353Z,71.44
2022-11-29T17:56:39.659Z,72.88
2022-11-29T17:59:05.962Z,72.93
2022-11-29T18:01:32.388Z,72.99
2022-11-29T18:03:58.738Z,73.18
2022-11-29T18:06:25.029Z,73.06
2022-11-29T18:08:51.349Z,72.47
2022-11-29T18:11:17.643Z,72.79
2022-11-29T18:13:43.930Z,73.31
2022-11-29T18:16:10.248Z,73.13
2022-11-29T18:18:36.539Z,72.45
2022-11-29T18:21:02.831Z,72.74
2022-11-29T18:23:29.144Z,72.06
2022-11-29T18:25:55.432Z,72.58
2022-11-29T18:28:21.729Z,72.16
2022-11-29T18:30:48.073Z,72.14
2022-11-29T18:33:14.415Z,71.56
2022-11-29T18:35:40.716Z,71.47
2022-11-29T18:38:15.348Z,71.36
2022-11-29T18:40:42.156Z,70.42
2022-11-29T18:43:08.468Z,70.48
2022-11-29T18:45:34.771Z,69.86
2022-11-29T18:48:01.063Z,69.10
2022-11-29T18:50:27.364Z,69.44
2022-11-29T18:52:53.668Z,69.28
2022-11-29T18:55:19.959Z,70.35
2022-11-29T18:57:46.266Z,70.18
2022-11-29T19:00:12.555Z,70.76
2022-11-29T19:02:38.877Z,71.29
2022-11-29T19:05:05.240Z,71.23
2022-11-29T19:07:31.613Z,70.79
2022-11-29T19:09:57.945Z,71.45
2022-11-29T19:12:24.261Z,71.35
2022-11-29T19:14:50.940Z,70.79
2022-11-29T19:17:17.482Z,70.82
2022-11-29T19:19:44.229Z,70.98
2022-11-29T19:22:10.802Z,70.90
2022-11-29T19:24:37.089Z,70.88
2022-11-29T19:27:03.413Z,70.59
2022-11-29T19:29:29.727Z,70.44
2022-11-29T19:31:56.024Z,71.79
2022-11-29T19:34:22.349Z,70.35
2022-11-29T19:36:48.644Z,70.64
2022-11-29T19:39:14.948Z,70.34
2022-11-29T19:41:41.292Z,69.96
2022-11-29T19:44:07.601Z,70.27
2022-11-29T19:46:34.008Z,70.83
2022-11-29T19:49:00.403Z,70.83
2022-11-29T19:51:26.697Z,70.35
2022-11-29T19:53:53.008Z,70.89
2022-11-29T19:56:19.321Z,71.08
2022-11-29T19:58:45.624Z,70.84
2022-11-29T20:01:11.959Z,70.05
2022-11-29T20:03:38.283Z,70.18
2022-11-29T20:06:04.566Z,70.00
2022-11-29T20:08:30.925Z,69.93
2022-11-29T20:10:57.390Z,70.68
2022-11-29T20:13:23.698Z,71.08
2022-11-29T20:15:50.151Z,70.35
2022-11-29T20:18:16.557Z,70.69
2022-11-29T20:20:42.858Z,71.50
2022-11-29T20:23:09.210Z,72.20
2022-11-29T20:25:35.651Z,71.76
2022-11-29T20:28:01.982Z,71.51
2022-11-29T20:30:28.302Z,71.83
2022-11-29T20:32:54.612Z,72.61
2022-11-29T20:35:20.912Z,73.15
2022-11-29T20:37:47.227Z,72.31
2022-11-29T20:40:13.543Z,72.62
2022-11-29T20:42:39.880Z,72.42
2022-11-29T20:45:06.164Z,72.71
2022-11-29T20:47:32.567Z,73.14
2022-11-29T20:49:58.883Z,73.02
2022-11-29T20:52:25.211Z,73.53
2022-11-29T20:54:51.561Z,73.99
2022-11-29T20:57:17.870Z,73.84
2022-11-29T20:59:44.688Z,73.96
2022-11-29T21:02:11.235Z,73.76
2022-11-29T21:04:37.560Z,73.63
2022-11-29T21:07:03.871Z,73.77
2022-11-29T21:09:30.190Z,74.04
2022-11-29T21:11:56.497Z,73.64
2022-11-29T21:14:22.789Z,73.65
2022-11-29T21:16:49.145Z,73.58
2022-11-29T21:19:15.453Z,73.85
2022-11-29T21:21:41.751Z,73.91
2022-11-29T21:24:08.058Z,74.33
2022-11-29T21:26:38.649Z,74.04
2022-11-29T21:29:07.974Z,73.96
2022-11-29T21:31:34.335Z,74.14
2022-11-29T21:34:00.654Z,73.85
2022-11-29T21:36:26.964Z,74.99
2022-11-29T21:38:55.239Z,75.07
2022-11-29T21:41:21.747Z,74.94
2022-11-29T21:44:06.214Z,75.23
2022-11-29T21:46:33.395Z,76.16
2022-11-29T21:48:59.753Z,75.30
2022-11-29T21:51:26.035Z,75.80
2022-11-29T21:53:52.313Z,76.03
2022-11-29T21:56:18.603Z,75.26
2022-11-29T21:58:44.887Z,75.32
2022-11-29T22:01:11.162Z,75.53
2022-11-29T22:03:37.490Z,76.20
2022-11-29T22:06:03.777Z,76.99
2022-11-29T22:08:30.078Z,75.87
2022-11-29T22:10:56.377Z,76.00
2022-11-29T22:13:22.657Z,76.28
2022-11-29T22:15:48.951Z,75.75
2022-11-29T22:18:15.307Z,75.11
2022-11-29T22:20:41.587Z,75.22
2022-11-29T22:23:07.866Z,75.60
2022-11-29T22:25:34.201Z,75.66
2022-11-29T22:28:00.501Z,75.96
2022-11-29T22:30:26.813Z,75.28
2022-11-29T22:32:53.134Z,76.41
2022-11-29T22:35:19.438Z,75.64
2022-11-29T22:37:45.733Z,75.81
2022-11-29T22:40:12.056Z,76.07
2022-11-29T22:42:38.349Z,75.65
2022-11-29T22:45:04.719Z,76.15
2022-11-29T22:47:31.042Z,76.70
2022-11-29T22:49:57.340Z,75.83
2022-11-29T22:52:23.699Z,76.62
2022-11-29T22:54:50.074Z,76.53
2022-11-29T22:57:16.420Z,76.86
2022-11-29T22:59:42.716Z,77.11
2022-11-29T23:02:09.119Z,77.34
2022-11-29T23:04:35.438Z,77.23
2022-11-29T23:07:01.741Z,76.68
2022-11-29T23:09:28.056Z,76.39
2022-11-29T23:11:54.348Z,77.07
2022-11-29T23:14:20.650Z,76.69
2022-11-29T23:16:46.991Z,76.46
2022-11-29T23:19:13.310Z,77.22
2022-11-29T23:21:39.614Z,76.58
2022-11-29T23:24:05.955Z,76.92
2022-11-29T23:26:32.251Z,76.66
2022-11-29T23:28:58.546Z,77.29
2022-11-29T23:31:25.019Z,77.97
2022-11-29T23:33:51.407Z,77.63
2022-11-29T23:36:17.708Z,76.62
2022-11-29T23:38:44.022Z,78.00
2022-11-29T23:41:10.317Z,77.41
2022-11-29T23:43:36.608Z,77.27
2022-11-29T23:46:02.978Z,77.23
2022-11-29T23:48:29.279Z,77.64
2022-11-29T23:50:55.583Z,77.78
2022-11-29T23:53:21.896Z,77.52
2022-11-29T23:55:48.194Z,78.27
2022-11-29T23:58:14.488Z,77.91
